Terminal Aerodrome Forecast
Issued by NWS Kansas City/Pleasant Hill, MO

Home | Current Version | Previous Version | Text Only | Print | Product List | Glossary On
Versions: 1 2 3 4 5 6 7 8 9 10 11 12
000
FTUS43 KEAX 011100
TAFMCI
TAF
KMCI 011120Z 0112/0212 14011KT P6SM -RA VCTS SCT040CB OVC110
     FM011600 10008KT P6SM SCT100
     FM012200 05009KT P6SM VCTS BKN040CB
     FM020300 09010KT P6SM VCSH BKN025=

USA.gov is the U.S. government's official web portal to all federal, state and local government web resources and services.